createdAt,value
2023-05-10T00:01:19.624Z,75.36
2023-05-10T00:03:46.469Z,75.34
2023-05-10T00:06:13.436Z,74.71
2023-05-10T00:08:40.152Z,75.07
2023-05-10T00:11:06.882Z,74.79
2023-05-10T00:13:33.687Z,74.46
2023-05-10T00:16:02.156Z,75.86
2023-05-10T00:18:30.311Z,74.95
2023-05-10T00:20:59.293Z,74.73
2023-05-10T00:23:26.216Z,73.95
2023-05-10T00:25:52.956Z,73.48
2023-05-10T00:28:19.994Z,73.39
2023-05-10T00:30:46.872Z,73.25
2023-05-10T00:33:13.580Z,72.92
2023-05-10T00:35:40.384Z,72.23
2023-05-10T00:38:08.074Z,72.13
2023-05-10T00:40:37.055Z,72.35
2023-05-10T00:43:06.281Z,72.30
2023-05-10T00:45:34.086Z,72.32
2023-05-10T00:48:03.447Z,72.98
2023-05-10T00:50:35.857Z,73.02
2023-05-10T00:53:03.655Z,73.01
2023-05-10T00:55:31.376Z,73.08
2023-05-10T00:58:00.153Z,72.57
2023-05-10T01:00:26.892Z,72.27
2023-05-10T01:02:55.191Z,72.42
2023-05-10T01:05:23.402Z,72.95
2023-05-10T01:07:50.862Z,73.66
2023-05-10T01:10:17.900Z,74.65
2023-05-10T01:12:47.411Z,73.03
2023-05-10T01:15:17.066Z,72.34
2023-05-10T01:17:48.327Z,72.90
2023-05-10T01:20:16.680Z,73.28
2023-05-10T01:23:22.146Z,73.17
2023-05-10T01:25:58.012Z,72.49
2023-05-10T01:28:46.235Z,72.02
2023-05-10T01:31:41.211Z,72.46
2023-05-10T01:34:28.662Z,73.41
2023-05-10T01:37:02.715Z,72.99
2023-05-10T01:39:55.655Z,72.96
2023-05-10T01:42:30.023Z,72.79
2023-05-10T01:45:08.518Z,72.65
2023-05-10T01:47:44.293Z,73.58
2023-05-10T01:50:18.163Z,74.05
2023-05-10T01:52:50.442Z,72.90
2023-05-10T01:55:21.653Z,72.37
2023-05-10T01:57:55.987Z,72.22
2023-05-10T02:00:24.559Z,72.26
2023-05-10T02:02:53.924Z,73.04
2023-05-10T02:05:22.733Z,72.39
2023-05-10T02:07:50.975Z,72.07
2023-05-10T02:10:19.242Z,73.62
2023-05-10T02:12:50.928Z,73.18
2023-05-10T02:15:22.434Z,72.00
2023-05-10T02:17:50.173Z,71.18
2023-05-10T02:20:19.648Z,71.30
2023-05-10T02:22:50.302Z,70.53
2023-05-10T02:25:20.413Z,70.51
2023-05-10T02:27:48.529Z,70.50
2023-05-10T02:30:16.870Z,70.27
2023-05-10T02:32:44.921Z,69.80
2023-05-10T02:35:12.303Z,70.16
2023-05-10T02:37:40.716Z,70.29
2023-05-10T02:40:09.736Z,70.28
2023-05-10T02:42:41.072Z,70.01
2023-05-10T02:45:12.673Z,69.17
2023-05-10T02:47:40.345Z,68.79
2023-05-10T02:50:08.019Z,69.56
2023-05-10T02:52:48.782Z,68.37
2023-05-10T02:55:17.327Z,68.31
2023-05-10T02:57:53.453Z,69.26
2023-05-10T03:00:20.395Z,68.77
2023-05-10T03:02:49.594Z,68.27
2023-05-10T03:05:16.806Z,67.79
2023-05-10T03:07:44.368Z,68.79
2023-05-10T03:10:11.680Z,67.88
2023-05-10T03:12:46.680Z,67.57
2023-05-10T03:15:30.084Z,68.46
2023-05-10T03:18:10.341Z,70.14
2023-05-10T03:20:44.118Z,70.16
2023-05-10T03:23:41.404Z,71.60
2023-05-10T03:26:09.718Z,72.55
2023-05-10T03:28:37.961Z,72.73
2023-05-10T03:31:07.290Z,73.81
2023-05-10T03:33:34.510Z,74.88
2023-05-10T03:36:01.446Z,73.78
2023-05-10T03:38:30.221Z,74.22
2023-05-10T03:40:57.704Z,75.20
2023-05-10T03:43:24.554Z,75.39
2023-05-10T03:45:52.463Z,76.13
2023-05-10T03:48:19.093Z,76.08
2023-05-10T03:50:45.901Z,75.88
2023-05-10T03:53:13.291Z,75.86
2023-05-10T03:55:40.238Z,75.30
2023-05-10T03:58:06.922Z,74.69
2023-05-10T04:00:34.533Z,74.90
2023-05-10T04:03:01.851Z,75.05
2023-05-10T04:05:28.610Z,75.14
2023-05-10T04:07:55.408Z,75.81
2023-05-10T04:10:22.217Z,75.04
2023-05-10T04:12:48.921Z,75.95
2023-05-10T04:15:15.960Z,74.66
2023-05-10T04:17:42.804Z,76.40
2023-05-10T04:20:10.184Z,75.33
2023-05-10T04:22:36.912Z,75.23
2023-05-10T04:25:03.879Z,73.97
2023-05-10T04:27:30.567Z,73.43
2023-05-10T04:29:57.445Z,73.49
2023-05-10T04:32:24.427Z,74.16
2023-05-10T04:34:54.387Z,73.08
2023-05-10T04:37:23.490Z,73.35
2023-05-10T04:39:50.262Z,73.13
2023-05-10T04:42:17.028Z,73.06
2023-05-10T04:44:43.686Z,72.90
2023-05-10T04:47:12.624Z,73.00
2023-05-10T04:49:39.534Z,73.08
2023-05-10T04:52:06.180Z,72.63
2023-05-10T04:54:32.918Z,73.32
2023-05-10T04:56:59.518Z,74.94
2023-05-10T04:59:26.982Z,74.44
2023-05-10T05:01:53.768Z,74.04
2023-05-10T05:04:20.522Z,73.60
2023-05-10T05:06:47.358Z,73.80
2023-05-10T05:09:13.975Z,74.47
2023-05-10T05:11:41.378Z,74.56
2023-05-10T05:14:08.011Z,76.69
2023-05-10T05:16:35.322Z,76.52
2023-05-10T05:19:02.704Z,75.58
2023-05-10T05:21:29.944Z,75.54
2023-05-10T05:23:56.673Z,75.34
2023-05-10T05:26:23.440Z,74.95
2023-05-10T05:28:52.746Z,74.47
2023-05-10T05:31:20.049Z,74.44
2023-05-10T05:33:46.964Z,74.36
2023-05-10T05:36:13.589Z,74.05
2023-05-10T05:38:40.226Z,73.77
2023-05-10T05:41:06.836Z,73.48
2023-05-10T05:43:34.103Z,75.04
2023-05-10T05:46:02.203Z,73.83
2023-05-10T05:48:30.846Z,73.30
2023-05-10T05:50:58.112Z,73.24
2023-05-10T05:53:25.312Z,73.09
2023-05-10T05:55:56.452Z,73.15
2023-05-10T05:58:23.792Z,73.31
2023-05-10T06:00:51.300Z,73.40
2023-05-10T06:03:18.632Z,72.67
2023-05-10T06:05:45.473Z,72.49
2023-05-10T06:08:12.119Z,73.06
2023-05-10T06:10:38.844Z,72.82
2023-05-10T06:13:08.401Z,70.96
2023-05-10T06:15:35.741Z,71.19
2023-05-10T06:18:02.925Z,72.43
2023-05-10T06:20:29.756Z,72.29
2023-05-10T06:22:56.470Z,72.41
2023-05-10T06:25:23.118Z,73.40
2023-05-10T06:27:53.403Z,71.84
2023-05-10T06:30:21.319Z,73.55
2023-05-10T06:32:48.288Z,73.67
2023-05-10T06:35:15.121Z,73.84
2023-05-10T06:37:42.041Z,73.72
2023-05-10T06:40:09.212Z,73.72
2023-05-10T06:42:35.963Z,73.62
2023-05-10T06:45:03.877Z,73.90
2023-05-10T06:47:32.914Z,75.11
2023-05-10T06:49:59.879Z,73.75
2023-05-10T06:52:26.770Z,72.61
2023-05-10T06:54:53.511Z,74.19
2023-05-10T06:57:31.295Z,74.23
2023-05-10T07:00:00.350Z,74.28
2023-05-10T07:02:27.285Z,74.25
2023-05-10T07:04:54.247Z,72.97
2023-05-10T07:07:21.389Z,72.53
2023-05-10T07:09:48.536Z,71.58
2023-05-10T07:12:16.043Z,72.19
2023-05-10T07:14:43.263Z,71.47
2023-05-10T07:17:10.961Z,72.96
2023-05-10T07:19:38.294Z,72.34
2023-05-10T07:22:05.029Z,73.34
2023-05-10T07:24:33.504Z,72.08
2023-05-10T07:27:01.246Z,71.37
2023-05-10T07:29:28.254Z,71.63
2023-05-10T07:31:57.931Z,70.38
2023-05-10T07:34:26.072Z,68.61
2023-05-10T07:36:53.535Z,67.39
2023-05-10T07:39:27.260Z,64.90
2023-05-10T07:41:56.049Z,63.27
2023-05-10T07:44:23.092Z,62.64
2023-05-10T07:46:49.971Z,64.57
2023-05-10T07:49:17.284Z,65.08
2023-05-10T07:51:44.089Z,61.79
2023-05-10T07:54:10.697Z,65.41
2023-05-10T07:56:37.592Z,65.28
2023-05-10T07:59:06.074Z,62.88
2023-05-10T08:01:34.145Z,62.63
2023-05-10T08:04:01.842Z,61.28
2023-05-10T08:06:30.757Z,57.55
2023-05-10T08:08:57.542Z,54.95
2023-05-10T08:11:24.212Z,59.87
2023-05-10T08:13:51.752Z,58.34
2023-05-10T08:16:19.027Z,57.64
2023-05-10T08:18:47.963Z,55.80
2023-05-10T08:21:15.517Z,60.22
2023-05-10T08:23:44.468Z,60.12
2023-05-10T08:26:11.593Z,59.76
2023-05-10T08:28:38.372Z,54.20
2023-05-10T08:31:06.185Z,57.18
2023-05-10T08:33:32.966Z,55.05
2023-05-10T08:36:00.019Z,55.61
2023-05-10T08:38:27.004Z,55.58
2023-05-10T08:40:57.659Z,54.97
2023-05-10T08:43:30.233Z,54.12
2023-05-10T08:45:57.790Z,54.89
2023-05-10T08:48:25.773Z,58.02
2023-05-10T08:50:58.528Z,57.43
2023-05-10T08:53:28.632Z,57.42
2023-05-10T08:55:56.500Z,59.27
2023-05-10T08:58:23.283Z,61.35
2023-05-10T09:00:51.894Z,58.34
2023-05-10T09:03:19.202Z,58.64
2023-05-10T09:05:46.205Z,57.44
2023-05-10T09:08:14.319Z,57.10
2023-05-10T09:10:43.215Z,56.31
2023-05-10T09:13:12.597Z,53.45
2023-05-10T09:15:39.943Z,57.66
2023-05-10T09:18:07.092Z,58.09
2023-05-10T09:20:33.872Z,58.28
2023-05-10T09:23:00.638Z,57.82
2023-05-10T09:25:30.124Z,58.42
2023-05-10T09:27:57.308Z,59.37
2023-05-10T09:30:26.769Z,56.94
2023-05-10T09:32:54.497Z,58.87
2023-05-10T09:35:26.570Z,57.29
2023-05-10T09:37:57.153Z,59.37
2023-05-10T09:40:26.526Z,58.66
2023-05-10T09:42:55.890Z,57.77
2023-05-10T09:45:24.905Z,58.73
2023-05-10T09:47:51.802Z,58.42
2023-05-10T09:50:18.578Z,58.78
2023-05-10T09:52:55.447Z,58.09
2023-05-10T09:55:24.767Z,58.13
2023-05-10T09:58:02.403Z,57.16
2023-05-10T10:00:29.552Z,58.68
2023-05-10T10:03:00.438Z,58.83
2023-05-10T10:05:34.325Z,58.67
2023-05-10T10:08:03.419Z,58.15
2023-05-10T10:10:31.731Z,59.02
2023-05-10T10:12:58.719Z,58.03
2023-05-10T10:15:26.022Z,58.00
2023-05-10T10:17:54.615Z,57.09
2023-05-10T10:20:23.206Z,56.91
2023-05-10T10:22:50.627Z,55.20
2023-05-10T10:25:19.968Z,55.48
2023-05-10T10:28:07.963Z,53.63
2023-05-10T10:30:44.742Z,53.42
2023-05-10T10:33:54.021Z,56.37
2023-05-10T10:36:21.517Z,57.06
2023-05-10T10:38:48.055Z,56.83
2023-05-10T10:41:30.440Z,54.43
2023-05-10T10:44:34.497Z,55.35
2023-05-10T10:47:31.873Z,54.96
2023-05-10T10:49:58.781Z,54.89
2023-05-10T10:52:34.238Z,54.75
2023-05-10T10:55:15.306Z,53.29
2023-05-10T10:57:42.260Z,54.46
2023-05-10T11:00:31.492Z,55.56
2023-05-10T11:03:09.658Z,54.06
2023-05-10T11:05:42.472Z,55.09
2023-05-10T11:08:17.479Z,54.71
2023-05-10T11:11:10.660Z,52.88
2023-05-10T11:13:50.863Z,53.46
2023-05-10T11:16:21.566Z,50.39
2023-05-10T11:19:09.192Z,52.57
2023-05-10T11:21:47.432Z,49.86
2023-05-10T11:24:16.551Z,51.17
2023-05-10T11:26:43.443Z,52.04
2023-05-10T11:29:10.545Z,51.82
2023-05-10T11:31:44.733Z,51.86
2023-05-10T11:34:12.057Z,51.23
2023-05-10T11:36:39.053Z,53.26
2023-05-10T11:39:07.081Z,52.79
2023-05-10T11:41:33.998Z,53.16
2023-05-10T11:44:04.013Z,53.30
2023-05-10T11:46:31.014Z,51.86
2023-05-10T11:49:05.610Z,53.70
2023-05-10T11:51:37.398Z,52.76
2023-05-10T11:54:12.190Z,53.98
2023-05-10T11:56:40.346Z,53.16
2023-05-10T11:59:07.530Z,54.03
2023-05-10T12:01:34.629Z,54.91
2023-05-10T12:04:01.936Z,55.57
2023-05-10T12:06:32.268Z,56.01
2023-05-10T12:08:59.786Z,57.99
2023-05-10T12:11:28.266Z,55.61
2023-05-10T12:13:56.261Z,54.86
2023-05-10T12:16:25.665Z,55.46
2023-05-10T12:18:53.951Z,55.32
2023-05-10T12:21:29.522Z,55.59
2023-05-10T12:24:02.362Z,55.99
2023-05-10T12:26:29.659Z,56.89
2023-05-10T12:29:12.480Z,55.40
2023-05-10T12:31:59.392Z,52.70
2023-05-10T12:34:33.807Z,51.65
2023-05-10T12:37:01.901Z,51.40
2023-05-10T12:39:40.445Z,50.22
2023-05-10T12:42:07.327Z,51.40
2023-05-10T12:44:33.901Z,49.58
2023-05-10T12:47:00.802Z,49.16
2023-05-10T12:49:27.289Z,49.29
2023-05-10T12:51:54.117Z,50.82
2023-05-10T12:54:21.904Z,47.85
2023-05-10T12:56:48.605Z,49.05
2023-05-10T12:59:15.276Z,51.21
2023-05-10T13:01:42.010Z,53.91
2023-05-10T13:04:08.821Z,54.43
2023-05-10T13:06:36.216Z,55.47
2023-05-10T13:09:03.463Z,56.36
2023-05-10T13:11:30.353Z,57.13
2023-05-10T13:13:56.962Z,57.09
2023-05-10T13:16:23.781Z,57.99
2023-05-10T13:18:50.900Z,58.81
2023-05-10T13:21:17.875Z,60.90
2023-05-10T13:23:44.536Z,59.95
2023-05-10T13:26:11.394Z,60.31
2023-05-10T13:28:39.687Z,59.20
2023-05-10T13:31:06.446Z,57.58
2023-05-10T13:33:33.144Z,56.75
2023-05-10T13:35:59.940Z,57.77
2023-05-10T13:38:26.788Z,56.95
2023-05-10T13:40:54.141Z,58.63
2023-05-10T13:43:21.164Z,58.22
2023-05-10T13:45:48.019Z,59.23
2023-05-10T13:48:14.745Z,59.68
2023-05-10T13:50:41.459Z,60.53
2023-05-10T13:53:08.167Z,60.24
2023-05-10T13:55:34.860Z,60.50
2023-05-10T13:58:01.462Z,61.20
2023-05-10T14:00:28.434Z,61.99
2023-05-10T14:02:55.502Z,62.66
2023-05-10T14:05:25.979Z,62.69
2023-05-10T14:07:53.551Z,62.74
2023-05-10T14:10:20.329Z,63.26
2023-05-10T14:12:47.196Z,61.69
2023-05-10T14:15:13.967Z,62.39
2023-05-10T14:17:40.789Z,62.73
2023-05-10T14:20:09.503Z,62.51
2023-05-10T14:22:36.554Z,63.87
2023-05-10T14:25:03.390Z,62.60
2023-05-10T14:27:31.217Z,64.70
2023-05-10T14:29:57.831Z,62.98
2023-05-10T14:32:24.526Z,61.84
2023-05-10T14:34:51.158Z,62.05
2023-05-10T14:37:17.794Z,62.07
2023-05-10T14:39:44.492Z,62.50
2023-05-10T14:42:11.111Z,65.16
2023-05-10T14:44:38.396Z,62.54
2023-05-10T14:47:05.293Z,62.32
2023-05-10T14:49:32.610Z,62.30
2023-05-10T14:52:01.592Z,62.56
2023-05-10T14:54:28.500Z,63.54
2023-05-10T14:56:55.216Z,64.00
2023-05-10T14:59:22.179Z,64.11
2023-05-10T15:01:49.343Z,63.63
2023-05-10T15:04:17.489Z,62.95
2023-05-10T15:06:45.256Z,63.07
2023-05-10T15:09:12.146Z,62.90
2023-05-10T15:11:38.792Z,62.86
2023-05-10T15:14:05.679Z,63.45
2023-05-10T15:16:35.633Z,62.91
2023-05-10T15:19:03.449Z,63.44
2023-05-10T15:21:36.022Z,63.07
2023-05-10T15:24:02.754Z,63.06
2023-05-10T15:26:32.477Z,63.31
2023-05-10T15:29:00.266Z,62.93
2023-05-10T15:31:28.098Z,62.93
2023-05-10T15:34:01.508Z,63.21
2023-05-10T15:36:28.304Z,64.55
2023-05-10T15:38:55.711Z,64.17
2023-05-10T15:41:22.857Z,64.90
2023-05-10T15:43:49.543Z,65.52
2023-05-10T15:46:16.385Z,66.95
2023-05-10T15:48:43.537Z,68.02
2023-05-10T15:51:10.469Z,68.41
2023-05-10T15:53:37.181Z,68.45
2023-05-10T15:56:04.171Z,68.28
2023-05-10T15:58:31.020Z,68.69
2023-05-10T16:00:57.854Z,68.30
2023-05-10T16:03:24.913Z,68.25
2023-05-10T16:05:51.887Z,68.01
2023-05-10T16:08:18.582Z,68.30
2023-05-10T16:10:45.773Z,68.76
2023-05-10T16:13:12.504Z,67.33
2023-05-10T16:15:39.039Z,68.49
2023-05-10T16:18:06.102Z,69.08
2023-05-10T16:20:33.168Z,70.58
2023-05-10T16:23:05.055Z,70.82
2023-05-10T16:25:32.594Z,70.21
2023-05-10T16:28:00.232Z,69.58
2023-05-10T16:30:30.404Z,69.63
2023-05-10T16:32:58.208Z,68.93
2023-05-10T16:35:25.026Z,69.00
2023-05-10T16:37:52.519Z,68.49
2023-05-10T16:40:19.475Z,69.03
2023-05-10T16:42:46.218Z,68.70
2023-05-10T16:45:13.196Z,68.18
2023-05-10T16:47:40.630Z,67.01
2023-05-10T16:50:08.752Z,66.97
2023-05-10T16:52:36.425Z,67.26
2023-05-10T16:55:04.604Z,67.58
2023-05-10T16:57:32.902Z,66.64
2023-05-10T16:59:59.687Z,66.09
2023-05-10T17:02:26.725Z,67.15
2023-05-10T17:04:56.150Z,65.09
2023-05-10T17:07:25.463Z,65.14
2023-05-10T17:09:55.074Z,64.72
2023-05-10T17:12:21.646Z,65.35
2023-05-10T17:14:48.237Z,65.67
2023-05-10T17:17:14.848Z,64.96
2023-05-10T17:19:44.928Z,64.97
2023-05-10T17:22:15.217Z,64.64
2023-05-10T17:24:41.775Z,64.29
2023-05-10T17:27:08.496Z,64.22
2023-05-10T17:29:35.088Z,65.10
2023-05-10T17:32:02.041Z,65.72
2023-05-10T17:34:31.444Z,65.12
2023-05-10T17:36:59.910Z,65.40
2023-05-10T17:39:26.545Z,65.29
2023-05-10T17:41:53.297Z,66.17
2023-05-10T17:44:20.025Z,65.62
2023-05-10T17:46:46.999Z,64.70
2023-05-10T17:49:14.001Z,64.87
2023-05-10T17:51:44.048Z,65.37
2023-05-10T17:54:15.078Z,65.18
2023-05-10T17:56:42.171Z,65.35
2023-05-10T17:59:10.645Z,65.26
2023-05-10T18:01:40.178Z,64.94
2023-05-10T18:04:09.886Z,64.48
2023-05-10T18:06:38.555Z,65.12
2023-05-10T18:09:10.071Z,64.40
2023-05-10T18:11:38.605Z,65.36
2023-05-10T18:14:07.617Z,65.58
2023-05-10T18:16:34.855Z,65.98
2023-05-10T18:19:08.510Z,66.51
2023-05-10T18:21:35.884Z,65.99
2023-05-10T18:24:02.960Z,66.86
2023-05-10T18:26:30.053Z,67.56
2023-05-10T18:28:59.213Z,67.46
2023-05-10T18:31:28.225Z,67.18
2023-05-10T18:33:57.430Z,67.16
2023-05-10T18:36:24.388Z,66.79
2023-05-10T18:38:55.522Z,67.59
2023-05-10T18:41:22.678Z,67.31
2023-05-10T18:43:49.353Z,66.76
2023-05-10T18:46:16.126Z,67.70
2023-05-10T18:48:42.705Z,67.11
2023-05-10T18:51:10.337Z,67.83
2023-05-10T18:53:37.580Z,68.68
2023-05-10T18:56:04.468Z,69.25
2023-05-10T18:58:31.355Z,67.71
2023-05-10T19:00:58.852Z,68.00
2023-05-10T19:03:25.870Z,68.64
2023-05-10T19:05:52.690Z,68.16
2023-05-10T19:08:19.352Z,67.71
2023-05-10T19:10:46.192Z,67.34
2023-05-10T19:13:14.899Z,67.24
2023-05-10T19:15:42.139Z,67.87
2023-05-10T19:18:09.665Z,67.97
2023-05-10T19:20:38.512Z,68.63
2023-05-10T19:23:10.279Z,68.73
2023-05-10T19:25:37.337Z,69.01
2023-05-10T19:28:04.184Z,69.26
2023-05-10T19:30:31.888Z,69.56
2023-05-10T19:32:58.601Z,69.22
2023-05-10T19:35:25.333Z,69.05
2023-05-10T19:37:53.130Z,69.42
2023-05-10T19:40:20.006Z,69.21
2023-05-10T19:42:46.972Z,69.23
2023-05-10T19:45:16.063Z,70.19
2023-05-10T19:47:43.466Z,70.29
2023-05-10T19:50:12.419Z,70.17
2023-05-10T19:52:39.483Z,69.82
2023-05-10T19:55:07.330Z,69.29
2023-05-10T19:57:33.937Z,70.63
2023-05-10T20:00:00.924Z,69.80
2023-05-10T20:02:29.106Z,68.88
2023-05-10T20:04:55.884Z,69.08
2023-05-10T20:07:22.404Z,68.56
2023-05-10T20:09:49.615Z,68.58
2023-05-10T20:12:16.403Z,68.95
2023-05-10T20:14:43.271Z,68.80
2023-05-10T20:17:10.168Z,68.59
2023-05-10T20:19:37.049Z,68.50
2023-05-10T20:22:05.412Z,69.02
2023-05-10T20:24:32.444Z,69.05
2023-05-10T20:26:59.159Z,68.91
2023-05-10T20:29:26.512Z,69.00
2023-05-10T20:31:54.578Z,69.64
2023-05-10T20:34:24.294Z,69.86
2023-05-10T20:36:50.786Z,70.25
2023-05-10T20:39:18.012Z,69.93
2023-05-10T20:41:44.768Z,70.62
2023-05-10T20:44:11.597Z,71.71
2023-05-10T20:46:38.307Z,70.36
2023-05-10T20:49:05.651Z,69.33
2023-05-10T20:51:33.363Z,68.14
2023-05-10T20:54:01.899Z,67.68
2023-05-10T20:56:28.876Z,68.31
2023-05-10T20:58:55.929Z,68.22
2023-05-10T21:01:22.824Z,68.66
2023-05-10T21:03:49.543Z,69.28
2023-05-10T21:06:16.196Z,68.97
2023-05-10T21:08:43.260Z,68.15
2023-05-10T21:11:12.710Z,68.20
2023-05-10T21:13:39.422Z,67.98
2023-05-10T21:16:06.229Z,68.15
2023-05-10T21:18:32.931Z,68.10
2023-05-10T21:20:59.911Z,68.73
2023-05-10T21:23:26.992Z,68.81
2023-05-10T21:25:53.767Z,68.13
2023-05-10T21:28:21.585Z,67.87
2023-05-10T21:30:48.183Z,68.63
2023-05-10T21:33:14.941Z,68.29
2023-05-10T21:35:42.927Z,68.04
2023-05-10T21:38:09.913Z,69.31
2023-05-10T21:40:36.763Z,68.50
2023-05-10T21:43:03.603Z,68.73
2023-05-10T21:45:33.224Z,68.07
2023-05-10T21:48:00.316Z,68.35
2023-05-10T21:50:27.532Z,68.36
2023-05-10T21:52:55.180Z,68.10
2023-05-10T21:55:22.305Z,68.98
2023-05-10T21:57:50.115Z,68.89
2023-05-10T22:00:19.367Z,69.42
2023-05-10T22:02:46.878Z,69.22
2023-05-10T22:05:13.676Z,68.62
2023-05-10T22:07:40.687Z,67.77
2023-05-10T22:10:09.991Z,69.92
2023-05-10T22:12:36.989Z,69.52
2023-05-10T22:15:10.353Z,69.23
2023-05-10T22:17:40.025Z,69.12
2023-05-10T22:20:08.379Z,69.51
2023-05-10T22:22:35.112Z,68.51
2023-05-10T22:25:02.267Z,68.34
2023-05-10T22:27:29.123Z,68.12
2023-05-10T22:29:56.670Z,67.46
2023-05-10T22:32:23.420Z,67.32
2023-05-10T22:34:50.255Z,68.56
2023-05-10T22:37:17.753Z,67.98
2023-05-10T22:39:48.777Z,68.40
2023-05-10T22:42:15.989Z,66.85
2023-05-10T22:44:44.256Z,67.39
2023-05-10T22:47:11.072Z,68.04
2023-05-10T22:49:38.320Z,67.02
2023-05-10T22:52:05.319Z,67.18
2023-05-10T22:54:33.692Z,67.42
2023-05-10T22:57:01.829Z,68.26
2023-05-10T22:59:28.871Z,67.99
2023-05-10T23:01:56.079Z,68.07
2023-05-10T23:04:23.219Z,67.61
2023-05-10T23:06:49.937Z,67.78
2023-05-10T23:09:16.809Z,68.49
2023-05-10T23:11:43.425Z,68.62
2023-05-10T23:14:10.206Z,68.71
2023-05-10T23:16:37.094Z,68.73
2023-05-10T23:19:04.100Z,68.38
2023-05-10T23:21:32.100Z,68.14
2023-05-10T23:23:59.163Z,68.18
2023-05-10T23:26:26.050Z,67.91
2023-05-10T23:28:52.712Z,67.63
2023-05-10T23:31:19.412Z,68.04
2023-05-10T23:33:46.049Z,68.19
2023-05-10T23:36:12.698Z,68.00
2023-05-10T23:38:39.534Z,67.84
2023-05-10T23:41:06.534Z,67.77
2023-05-10T23:43:33.130Z,67.31
2023-05-10T23:46:00.023Z,67.41
2023-05-10T23:48:26.804Z,67.40
2023-05-10T23:50:53.506Z,67.83
2023-05-10T23:53:20.175Z,66.92
2023-05-10T23:55:47.106Z,67.74
2023-05-10T23:58:13.924Z,68.49
